createdAt,value
2022-10-22T00:00:09.478Z,17.51
2022-10-22T00:02:36.716Z,17.50
2022-10-22T00:05:04.962Z,17.45
2022-10-22T00:07:32.416Z,17.47
2022-10-22T00:09:59.614Z,17.44
2022-10-22T00:12:27.424Z,17.35
2022-10-22T00:14:54.578Z,17.34
2022-10-22T00:17:21.803Z,17.36
2022-10-22T00:19:48.996Z,17.42
2022-10-22T00:22:16.419Z,17.59
2022-10-22T00:24:43.669Z,17.78
2022-10-22T00:27:11.981Z,17.92
2022-10-22T00:29:39.147Z,18.01
2022-10-22T00:32:07.217Z,18.14
2022-10-22T00:34:34.515Z,18.26
2022-10-22T00:37:01.681Z,18.40
2022-10-22T00:39:29.483Z,18.43
2022-10-22T00:41:58.219Z,18.58
2022-10-22T00:45:03.110Z,18.72
2022-10-22T00:48:07.251Z,19.10
2022-10-22T00:50:47.906Z,19.28
2022-10-22T00:53:21.830Z,19.12
2022-10-22T00:55:53.295Z,19.13
2022-10-22T00:58:25.275Z,19.13
2022-10-22T01:00:52.655Z,19.31
2022-10-22T01:03:20.836Z,19.26
2022-10-22T01:06:03.630Z,19.21
2022-10-22T01:08:52.636Z,19.23
2022-10-22T01:12:04.496Z,19.26
2022-10-22T01:15:02.317Z,19.22
2022-10-22T01:17:50.537Z,19.21
2022-10-22T01:20:35.550Z,19.17
2022-10-22T01:23:21.307Z,19.15
2022-10-22T01:25:57.262Z,19.22
2022-10-22T01:28:45.867Z,19.25
2022-10-22T01:31:16.548Z,19.20
2022-10-22T01:33:46.893Z,19.24
2022-10-22T01:36:16.591Z,19.15
2022-10-22T01:38:46.123Z,19.21
2022-10-22T01:41:14.266Z,19.13
2022-10-22T01:43:41.386Z,19.12
2022-10-22T01:46:11.382Z,19.05
2022-10-22T01:49:05.929Z,18.99
2022-10-22T01:51:41.839Z,18.83
2022-10-22T01:54:17.757Z,18.68
2022-10-22T01:57:04.651Z,18.53
2022-10-22T01:59:50.164Z,18.40
2022-10-22T02:02:41.061Z,18.34
2022-10-22T02:05:16.687Z,18.21
2022-10-22T02:07:50.026Z,18.20
2022-10-22T02:10:17.891Z,18.14
2022-10-22T02:12:48.553Z,18.05
2022-10-22T02:15:18.814Z,17.98
2022-10-22T02:17:46.954Z,17.89
2022-10-22T02:20:22.097Z,17.80
2022-10-22T02:22:49.938Z,17.74
2022-10-22T02:25:17.523Z,17.72
2022-10-22T02:27:54.252Z,17.80
2022-10-22T02:30:22.964Z,17.85
2022-10-22T02:32:49.989Z,17.77
2022-10-22T02:35:22.393Z,17.78
2022-10-22T02:37:51.127Z,17.86
2022-10-22T02:40:18.965Z,17.89
2022-10-22T02:42:48.850Z,17.95
2022-10-22T02:45:18.337Z,17.91
2022-10-22T02:47:46.065Z,17.89
2022-10-22T02:50:13.606Z,17.94
2022-10-22T02:52:41.302Z,17.90
2022-10-22T02:55:09.108Z,17.95
2022-10-22T02:57:36.337Z,17.93
2022-10-22T03:00:05.926Z,17.94
2022-10-22T03:02:33.150Z,17.95
2022-10-22T03:05:01.017Z,17.93
2022-10-22T03:07:28.180Z,17.87
2022-10-22T03:09:55.277Z,17.85
2022-10-22T03:12:22.427Z,17.84
2022-10-22T03:14:49.575Z,17.84
2022-10-22T03:17:16.736Z,17.82
2022-10-22T03:19:43.841Z,17.81
2022-10-22T03:22:18.119Z,17.92
2022-10-22T03:24:48.023Z,18.20
2022-10-22T03:27:18.482Z,18.45
2022-10-22T03:29:46.928Z,18.93
2022-10-22T03:32:14.063Z,19.19
2022-10-22T03:34:41.162Z,19.27
2022-10-22T03:37:08.322Z,19.42
2022-10-22T03:39:36.439Z,19.52
2022-10-22T03:42:05.600Z,19.62
2022-10-22T03:44:33.566Z,19.59
2022-10-22T03:47:02.618Z,19.56
2022-10-22T03:49:30.341Z,19.57
2022-10-22T03:51:57.545Z,19.51
2022-10-22T03:54:24.796Z,19.45
2022-10-22T03:56:51.960Z,19.42
2022-10-22T03:59:19.078Z,19.32
2022-10-22T04:01:46.195Z,19.34
2022-10-22T04:04:13.290Z,19.33
2022-10-22T04:06:40.382Z,19.42
2022-10-22T04:09:07.629Z,19.39
2022-10-22T04:11:34.751Z,19.44
2022-10-22T04:14:01.926Z,19.28
2022-10-22T04:16:31.383Z,19.19
2022-10-22T04:18:58.923Z,19.14
2022-10-22T04:21:26.053Z,19.15
2022-10-22T04:23:53.575Z,19.06
2022-10-22T04:26:21.041Z,18.98
2022-10-22T04:28:50.857Z,19.03
2022-10-22T04:31:20.348Z,19.07
2022-10-22T04:33:47.931Z,19.10
2022-10-22T04:36:17.906Z,19.08
2022-10-22T04:38:46.845Z,19.13
2022-10-22T04:41:15.700Z,19.04
2022-10-22T04:43:43.402Z,19.16
2022-10-22T04:46:12.029Z,19.25
2022-10-22T04:48:41.795Z,19.17
2022-10-22T04:51:11.911Z,19.11
2022-10-22T04:53:40.506Z,19.11
2022-10-22T04:56:16.799Z,19.02
2022-10-22T04:58:44.095Z,18.87
2022-10-22T05:01:12.759Z,18.86
2022-10-22T05:03:40.197Z,18.85
2022-10-22T05:06:08.483Z,18.90
2022-10-22T05:08:35.800Z,18.88
2022-10-22T05:11:11.179Z,19.00
2022-10-22T05:13:38.740Z,19.00
2022-10-22T05:16:06.356Z,18.83
2022-10-22T05:18:37.950Z,18.78
2022-10-22T05:21:09.398Z,18.68
2022-10-22T05:23:36.566Z,18.73
2022-10-22T05:26:04.990Z,18.61
2022-10-22T05:28:32.808Z,18.59
2022-10-22T05:31:01.180Z,18.45
2022-10-22T05:33:30.437Z,18.44
2022-10-22T05:35:57.901Z,18.30
2022-10-22T05:38:25.442Z,18.25
2022-10-22T05:41:06.185Z,18.20
2022-10-22T05:43:34.329Z,18.20
2022-10-22T05:46:09.574Z,18.25
2022-10-22T05:48:37.448Z,18.37
2022-10-22T05:51:11.134Z,18.46
2022-10-22T05:53:40.919Z,18.56
2022-10-22T05:56:12.249Z,18.76
2022-10-22T05:58:39.651Z,18.81
2022-10-22T06:01:14.939Z,18.72
2022-10-22T06:03:42.505Z,18.59
2022-10-22T06:06:30.389Z,18.60
2022-10-22T06:09:21.284Z,18.62
2022-10-22T06:11:49.330Z,18.59
2022-10-22T06:14:17.854Z,18.65
2022-10-22T06:16:45.095Z,18.63
2022-10-22T06:19:14.667Z,18.63
2022-10-22T06:21:42.377Z,18.60
2022-10-22T06:24:10.455Z,18.58
2022-10-22T06:26:38.059Z,18.53
2022-10-22T06:29:05.683Z,18.51
2022-10-22T06:31:36.739Z,18.52
2022-10-22T06:34:08.027Z,18.54
2022-10-22T06:36:35.404Z,18.59
2022-10-22T06:39:03.727Z,18.73
2022-10-22T06:41:31.245Z,18.83
2022-10-22T06:43:58.406Z,18.87
2022-10-22T06:46:26.345Z,18.99
2022-10-22T06:49:02.408Z,19.26
2022-10-22T06:51:29.857Z,19.49
2022-10-22T06:53:58.239Z,19.68
2022-10-22T06:56:27.738Z,19.93
2022-10-22T06:58:56.602Z,20.40
2022-10-22T07:01:31.255Z,20.39
2022-10-22T07:03:58.773Z,20.47
2022-10-22T07:06:27.428Z,20.59
2022-10-22T07:08:56.337Z,20.75
2022-10-22T07:11:29.213Z,20.82
2022-10-22T07:13:58.666Z,20.90
2022-10-22T07:16:29.657Z,21.03
2022-10-22T07:18:58.287Z,21.09
2022-10-22T07:21:26.163Z,21.07
2022-10-22T07:23:53.460Z,21.24
2022-10-22T07:26:20.955Z,21.13
2022-10-22T07:28:48.543Z,21.27
2022-10-22T07:31:16.867Z,21.25
2022-10-22T07:33:44.915Z,21.24
2022-10-22T07:36:17.514Z,21.21
2022-10-22T07:38:54.407Z,21.26
2022-10-22T07:41:21.542Z,21.31
2022-10-22T07:43:48.638Z,21.25
2022-10-22T07:46:15.898Z,21.23
2022-10-22T07:48:42.998Z,21.17
2022-10-22T07:51:10.397Z,21.37
2022-10-22T07:53:37.955Z,21.34
2022-10-22T07:56:05.747Z,21.29
2022-10-22T07:58:33.397Z,21.60
2022-10-22T08:01:02.204Z,21.59
2022-10-22T08:03:29.696Z,21.79
2022-10-22T08:05:57.278Z,21.85
2022-10-22T08:08:27.127Z,21.97
2022-10-22T08:10:59.272Z,22.10
2022-10-22T08:13:27.521Z,22.15
2022-10-22T08:15:57.384Z,22.34
2022-10-22T08:18:25.453Z,22.50
2022-10-22T08:20:53.179Z,22.40
2022-10-22T08:23:24.490Z,22.55
2022-10-22T08:25:57.425Z,22.54
2022-10-22T08:28:24.668Z,22.57
2022-10-22T08:30:51.785Z,22.64
2022-10-22T08:33:18.902Z,22.54
2022-10-22T08:35:50.544Z,22.56
2022-10-22T08:38:19.032Z,22.52
2022-10-22T08:40:53.939Z,22.60
2022-10-22T08:43:39.814Z,22.65
2022-10-22T08:46:31.388Z,22.66
2022-10-22T08:49:04.483Z,22.69
2022-10-22T08:51:34.513Z,22.75
2022-10-22T08:54:01.469Z,22.66
2022-10-22T08:56:29.874Z,22.72
2022-10-22T08:59:13.751Z,22.79
2022-10-22T09:01:48.975Z,22.67
2022-10-22T09:04:25.523Z,22.69
2022-10-22T09:06:55.191Z,22.79
2022-10-22T09:09:27.049Z,22.83
2022-10-22T09:11:56.649Z,22.92
2022-10-22T09:14:25.887Z,23.09
2022-10-22T09:17:05.047Z,23.07
2022-10-22T09:19:48.284Z,23.04
2022-10-22T09:22:31.963Z,23.25
2022-10-22T09:25:13.919Z,23.32
2022-10-22T09:27:41.230Z,23.16
2022-10-22T09:30:20.755Z,23.29
2022-10-22T09:33:00.078Z,23.41
2022-10-22T09:35:27.479Z,23.57
2022-10-22T09:37:56.860Z,23.65
2022-10-22T09:40:26.187Z,23.34
2022-10-22T09:42:53.278Z,23.42
2022-10-22T09:45:29.106Z,23.42
2022-10-22T09:48:14.321Z,23.43
2022-10-22T09:50:46.514Z,23.47
2022-10-22T09:53:26.698Z,23.39
2022-10-22T09:55:57.721Z,23.26
2022-10-22T09:58:25.773Z,23.41
2022-10-22T10:00:56.406Z,23.50
2022-10-22T10:03:28.146Z,23.50
2022-10-22T10:06:01.591Z,23.45
2022-10-22T10:08:32.152Z,23.38
2022-10-22T10:11:33.578Z,23.36
2022-10-22T10:14:35.383Z,23.45
2022-10-22T10:17:02.419Z,23.43
2022-10-22T10:19:47.598Z,23.57
2022-10-22T10:22:25.208Z,23.63
2022-10-22T10:25:17.439Z,23.61
2022-10-22T10:27:50.269Z,23.60
2022-10-22T10:30:21.160Z,23.73
2022-10-22T10:33:06.681Z,23.96
2022-10-22T10:36:02.154Z,24.04
2022-10-22T10:38:42.491Z,24.13
2022-10-22T10:41:35.591Z,24.19
2022-10-22T10:44:29.658Z,24.32
2022-10-22T10:47:12.347Z,24.40
2022-10-22T10:49:39.470Z,24.21
2022-10-22T10:52:36.422Z,24.29
2022-10-22T10:55:30.701Z,24.35
2022-10-22T10:58:14.389Z,24.38
2022-10-22T11:00:53.816Z,24.62
2022-10-22T11:03:46.087Z,24.89
2022-10-22T11:06:19.432Z,25.36
2022-10-22T11:09:19.401Z,25.41
2022-10-22T11:12:04.383Z,25.44
2022-10-22T11:14:55.938Z,25.50
2022-10-22T11:17:26.430Z,25.45
2022-10-22T11:20:01.418Z,25.41
2022-10-22T11:22:38.361Z,25.28
2022-10-22T11:25:23.740Z,25.41
2022-10-22T11:28:07.920Z,25.71
2022-10-22T11:30:40.535Z,25.32
2022-10-22T11:33:14.942Z,25.17
2022-10-22T11:35:45.662Z,25.12
2022-10-22T11:38:17.392Z,25.08
2022-10-22T11:41:00.302Z,25.17
2022-10-22T11:43:51.390Z,25.24
2022-10-22T11:46:18.429Z,25.54
2022-10-22T11:49:02.120Z,25.65
2022-10-22T11:51:37.407Z,25.84
2022-10-22T11:54:31.396Z,25.93
2022-10-22T11:57:20.950Z,25.72
2022-10-22T11:59:48.125Z,25.39
2022-10-22T12:02:46.037Z,25.43
2022-10-22T12:05:24.951Z,25.15
2022-10-22T12:07:57.134Z,24.98
2022-10-22T12:10:34.026Z,24.85
2022-10-22T12:13:22.627Z,24.70
2022-10-22T12:15:54.242Z,24.65
2022-10-22T12:18:26.058Z,24.80
2022-10-22T12:20:54.355Z,24.84
2022-10-22T12:23:30.587Z,25.00
2022-10-22T12:25:58.151Z,25.14
2022-10-22T12:28:25.510Z,25.20
2022-10-22T12:30:52.608Z,25.25
2022-10-22T12:33:22.629Z,25.26
2022-10-22T12:35:53.934Z,25.33
2022-10-22T12:38:25.462Z,25.67
2022-10-22T12:40:55.641Z,26.15
2022-10-22T12:43:30.742Z,26.22
2022-10-22T12:45:59.680Z,26.37
2022-10-22T12:48:34.365Z,26.34
2022-10-22T12:51:04.704Z,26.43
2022-10-22T12:53:39.264Z,26.50
2022-10-22T12:56:15.897Z,26.37
2022-10-22T12:58:47.026Z,26.41
2022-10-22T13:01:17.100Z,26.32
2022-10-22T13:03:50.666Z,26.23
2022-10-22T13:06:20.517Z,26.06
2022-10-22T13:08:56.797Z,25.72
2022-10-22T13:11:23.926Z,25.78
2022-10-22T13:13:51.013Z,25.96
2022-10-22T13:16:27.764Z,25.94
2022-10-22T13:18:54.969Z,25.84
2022-10-22T13:21:26.855Z,25.71
2022-10-22T13:24:02.779Z,25.28
2022-10-22T13:26:33.401Z,25.09
2022-10-22T13:29:01.408Z,25.05
2022-10-22T13:31:33.508Z,24.84
2022-10-22T13:34:11.729Z,24.76
2022-10-22T13:36:41.133Z,24.43
2022-10-22T13:39:17.104Z,24.28
2022-10-22T13:41:44.316Z,24.10
2022-10-22T13:44:11.401Z,24.11
2022-10-22T13:46:42.637Z,24.20
2022-10-22T13:49:16.781Z,24.23
2022-10-22T13:51:44.410Z,24.14
2022-10-22T13:54:17.969Z,24.15
2022-10-22T13:56:45.316Z,24.07
2022-10-22T13:59:12.710Z,24.02
2022-10-22T14:01:40.086Z,23.74
2022-10-22T14:04:10.645Z,23.70
2022-10-22T14:06:37.833Z,23.59
2022-10-22T14:09:13.985Z,23.63
2022-10-22T14:11:41.410Z,23.64
2022-10-22T14:14:09.197Z,23.58
2022-10-22T14:16:37.581Z,23.55
2022-10-22T14:19:07.582Z,23.35
2022-10-22T14:21:37.296Z,23.22
2022-10-22T14:24:07.102Z,23.08
2022-10-22T14:26:36.620Z,23.00
2022-10-22T14:29:09.353Z,23.02
2022-10-22T14:34:10.799Z,23.02
2022-10-22T14:36:37.937Z,23.15
2022-10-22T14:39:05.036Z,23.19
2022-10-22T14:41:32.265Z,23.22
2022-10-22T14:43:59.855Z,23.22
2022-10-22T14:46:27.114Z,23.23
2022-10-22T14:48:54.198Z,23.12
2022-10-22T14:51:21.887Z,23.12
2022-10-22T14:53:49.427Z,23.12
2022-10-22T14:56:21.172Z,23.04
2022-10-22T14:58:49.010Z,22.92
2022-10-22T15:01:16.585Z,22.73
2022-10-22T15:03:43.698Z,22.72
2022-10-22T15:06:10.937Z,22.58
2022-10-22T15:08:38.211Z,22.50
2022-10-22T15:11:07.542Z,22.45
2022-10-22T15:13:35.411Z,22.44
2022-10-22T15:16:09.662Z,22.51
2022-10-22T15:18:37.136Z,22.51
2022-10-22T15:21:13.200Z,22.48
2022-10-22T15:23:40.654Z,22.44
2022-10-22T15:26:09.546Z,22.40
2022-10-22T15:28:38.103Z,22.27
2022-10-22T15:31:06.583Z,22.24
2022-10-22T15:33:34.162Z,22.20
2022-10-22T15:36:15.449Z,22.17
2022-10-22T15:38:42.639Z,22.09
2022-10-22T15:41:12.575Z,22.00
2022-10-22T15:43:39.686Z,21.92
2022-10-22T15:46:13.309Z,21.84
2022-10-22T15:48:41.237Z,21.78
2022-10-22T15:51:10.400Z,21.71
2022-10-22T15:53:37.743Z,21.69
2022-10-22T15:56:05.292Z,21.64
2022-10-22T15:58:32.935Z,21.56
2022-10-22T16:01:08.410Z,21.49
2022-10-22T16:03:36.425Z,21.44
2022-10-22T16:06:04.857Z,21.35
2022-10-22T16:08:32.572Z,21.26
2022-10-22T16:10:59.949Z,21.18
2022-10-22T16:13:27.563Z,21.06
2022-10-22T16:15:54.762Z,20.99
2022-10-22T16:18:23.533Z,20.91
2022-10-22T16:20:50.763Z,20.79
2022-10-22T16:23:19.062Z,20.63
2022-10-22T16:25:46.659Z,20.53
2022-10-22T16:28:14.615Z,20.49
2022-10-22T16:30:42.104Z,20.41
2022-10-22T16:33:10.617Z,20.36
2022-10-22T16:35:42.390Z,20.32
2022-10-22T16:38:10.976Z,20.31
2022-10-22T16:40:38.483Z,20.25
2022-10-22T16:43:05.810Z,20.21
2022-10-22T16:45:32.968Z,20.14
2022-10-22T16:48:00.091Z,20.11
2022-10-22T16:50:27.600Z,20.14
2022-10-22T16:52:54.811Z,20.11
2022-10-22T16:55:21.922Z,20.07
2022-10-22T16:57:53.328Z,20.11
2022-10-22T17:00:21.341Z,20.09
2022-10-22T17:02:53.315Z,20.07
2022-10-22T17:05:21.248Z,20.04
2022-10-22T17:07:48.724Z,20.00
2022-10-22T17:10:19.251Z,20.02
2022-10-22T17:12:47.367Z,19.98
2022-10-22T17:15:15.061Z,19.99
2022-10-22T17:17:42.270Z,19.98
2022-10-22T17:20:11.310Z,19.97
2022-10-22T17:22:38.536Z,19.94
2022-10-22T17:25:15.114Z,19.90
2022-10-22T17:27:44.215Z,19.82
2022-10-22T17:30:23.298Z,19.75
2022-10-22T17:32:53.877Z,19.69
2022-10-22T17:35:21.038Z,19.67
2022-10-22T17:37:48.380Z,19.62
2022-10-22T17:40:15.738Z,19.57
2022-10-22T17:42:43.267Z,19.52
2022-10-22T17:45:10.502Z,19.47
2022-10-22T17:47:37.660Z,19.37
2022-10-22T17:50:04.991Z,19.26
2022-10-22T17:52:32.097Z,19.19
2022-10-22T17:54:59.247Z,19.12
2022-10-22T17:57:26.362Z,19.03
2022-10-22T17:59:53.513Z,18.95
2022-10-22T18:02:20.640Z,18.91
2022-10-22T18:04:51.223Z,19.01
2022-10-22T18:07:18.410Z,18.87
2022-10-22T18:09:45.531Z,18.72
2022-10-22T18:12:13.727Z,18.62
2022-10-22T18:14:41.033Z,18.62
2022-10-22T18:17:08.382Z,18.65
2022-10-22T18:19:35.596Z,18.64
2022-10-22T18:22:02.765Z,18.65
2022-10-22T18:24:29.918Z,18.65
2022-10-22T18:26:57.063Z,18.66
2022-10-22T18:29:43.142Z,18.62
2022-10-22T18:32:13.152Z,18.61
2022-10-22T18:34:40.499Z,18.63
2022-10-22T18:37:07.677Z,18.66
2022-10-22T18:39:34.864Z,18.67
2022-10-22T18:42:06.123Z,18.68
2022-10-22T18:44:34.577Z,18.68
2022-10-22T18:47:01.683Z,18.65
2022-10-22T18:49:28.871Z,18.60
2022-10-22T18:51:56.037Z,18.58
2022-10-22T18:54:24.392Z,18.50
2022-10-22T18:57:00.554Z,18.48
2022-10-22T18:59:30.025Z,18.43
2022-10-22T19:02:00.275Z,18.36
2022-10-22T19:04:33.033Z,18.30
2022-10-22T19:07:00.267Z,18.26
2022-10-22T19:09:27.450Z,18.22
2022-10-22T19:11:54.525Z,18.15
2022-10-22T19:14:22.131Z,18.09
2022-10-22T19:16:49.578Z,18.04
2022-10-22T19:19:19.203Z,17.96
2022-10-22T19:21:47.033Z,17.90
2022-10-22T19:24:15.892Z,17.87
2022-10-22T19:26:44.067Z,17.85
2022-10-22T19:29:11.186Z,17.83
2022-10-22T19:31:38.479Z,17.85
2022-10-22T19:34:05.566Z,17.83
2022-10-22T19:36:32.878Z,17.84
2022-10-22T19:39:00.407Z,17.80
2022-10-22T19:41:29.408Z,17.78
2022-10-22T19:43:57.976Z,17.73
2022-10-22T19:46:26.162Z,17.60
2022-10-22T19:48:54.172Z,17.53
2022-10-22T19:51:24.226Z,17.47
2022-10-22T19:53:58.133Z,17.40
2022-10-22T19:56:25.374Z,17.33
2022-10-22T19:58:52.563Z,17.32
2022-10-22T20:01:20.616Z,17.35
2022-10-22T20:03:48.849Z,17.34
2022-10-22T20:06:17.646Z,17.39
2022-10-22T20:08:45.427Z,17.37
2022-10-22T20:11:18.663Z,17.34
2022-10-22T20:13:49.675Z,17.29
2022-10-22T20:16:22.933Z,17.31
2022-10-22T20:18:53.027Z,17.33
2022-10-22T20:21:20.635Z,17.37
2022-10-22T20:23:51.398Z,17.32
2022-10-22T20:26:18.875Z,17.32
2022-10-22T20:28:45.999Z,17.30
2022-10-22T20:31:16.847Z,17.24
2022-10-22T20:33:44.008Z,17.23
2022-10-22T20:36:17.807Z,17.26
2022-10-22T20:38:47.918Z,17.23
2022-10-22T20:41:20.739Z,17.16
2022-10-22T20:43:49.482Z,17.13
2022-10-22T20:46:18.123Z,17.08
2022-10-22T20:48:45.415Z,17.08
2022-10-22T20:51:12.784Z,17.07
2022-10-22T20:53:39.927Z,17.05
2022-10-22T20:56:07.158Z,17.03
2022-10-22T20:58:34.363Z,17.04
2022-10-22T21:01:10.019Z,16.96
2022-10-22T21:03:37.927Z,16.97
2022-10-22T21:06:06.151Z,16.94
2022-10-22T21:08:33.281Z,16.90
2022-10-22T21:11:00.422Z,16.90
2022-10-22T21:13:27.530Z,16.88
2022-10-22T21:15:54.627Z,16.91
2022-10-22T21:18:21.751Z,16.93
2022-10-22T21:20:48.822Z,16.93
2022-10-22T21:23:16.004Z,16.93
2022-10-22T21:25:53.135Z,16.92
2022-10-22T21:28:20.438Z,16.91
2022-10-22T21:30:47.586Z,16.90
2022-10-22T21:33:14.770Z,16.87
2022-10-22T21:35:50.142Z,16.82
2022-10-22T21:38:17.255Z,16.80
2022-10-22T21:40:44.482Z,16.78
2022-10-22T21:43:11.593Z,16.76
2022-10-22T21:45:38.999Z,16.73
2022-10-22T21:48:06.359Z,16.67
2022-10-22T21:50:33.749Z,16.66
2022-10-22T21:53:00.827Z,16.65
2022-10-22T21:55:27.979Z,16.60
2022-10-22T21:57:55.055Z,16.65
2022-10-22T22:00:22.247Z,16.54
2022-10-22T22:02:49.341Z,16.51
2022-10-22T22:05:17.375Z,16.52
2022-10-22T22:07:44.474Z,16.51
2022-10-22T22:10:11.598Z,16.48
2022-10-22T22:12:38.845Z,16.43
2022-10-22T22:15:06.870Z,16.40
2022-10-22T22:17:34.070Z,16.37
2022-10-22T22:20:01.234Z,16.32
2022-10-22T22:22:29.726Z,16.33
2022-10-22T22:24:56.823Z,16.32
2022-10-22T22:27:23.928Z,16.27
2022-10-22T22:29:51.021Z,16.26
2022-10-22T22:32:18.122Z,16.23
2022-10-22T22:34:45.246Z,16.23
2022-10-22T22:37:12.371Z,16.22
2022-10-22T22:39:39.498Z,16.15
2022-10-22T22:42:06.630Z,16.12
2022-10-22T22:44:33.715Z,16.02
2022-10-22T22:47:00.960Z,16.00
2022-10-22T22:49:28.149Z,16.04
2022-10-22T22:51:55.327Z,16.05
2022-10-22T22:54:22.439Z,15.95
2022-10-22T22:56:50.161Z,15.89
2022-10-22T22:59:17.291Z,15.86
2022-10-22T23:01:45.372Z,15.95
2022-10-22T23:04:16.383Z,15.85
2022-10-22T23:06:43.567Z,15.77
2022-10-22T23:09:13.050Z,15.63
2022-10-22T23:11:42.187Z,15.64
2022-10-22T23:14:12.471Z,15.64
2022-10-22T23:16:45.326Z,15.62
2022-10-22T23:19:14.567Z,15.63
2022-10-22T23:21:46.155Z,15.58
2022-10-22T23:24:16.537Z,15.58
2022-10-22T23:26:46.891Z,15.60
2022-10-22T23:29:15.892Z,15.55
2022-10-22T23:31:44.354Z,15.52
2022-10-22T23:34:16.071Z,15.45
2022-10-22T23:36:43.262Z,15.58
2022-10-22T23:39:13.602Z,15.46
2022-10-22T23:41:40.950Z,15.45
2022-10-22T23:44:09.588Z,15.48
2022-10-22T23:46:38.471Z,15.59
2022-10-22T23:49:07.461Z,15.66
2022-10-22T23:51:35.127Z,15.51
2022-10-22T23:54:05.266Z,15.37
2022-10-22T23:56:33.344Z,15.30
2022-10-22T23:59:00.506Z,15.27
